Time;durP1;ratioP1;P1;durP2;ratioP2;P2;SDS_P1;SDS_P2;PMS_P1;PMS_P2;Temp;Humidity;BMP_temperature;BMP_pressure;BME280_temperature;BME280_humidity;BME280_pressure;Samples;Min_cycle;Max_cycle;Signal;HPM_P1;HPM_P2
2021/07/28 00:00:20;;;;;;;14.20;5.50;;;23.40;93.10;;;;;;5031990;28;20044;-69
2021/07/28 00:03:24;;;;;;;12.43;5.28;;;23.30;92.80;;;;;;5032726;28;20391;-69
2021/07/28 00:06:29;;;;;;;11.88;5.80;;;23.30;93.00;;;;;;5032436;28;20049;-69
2021/07/28 00:09:34;;;;;;;8.93;4.75;;;23.30;92.90;;;;;;5040150;28;20040;-69
2021/07/28 00:12:38;;;;;;;8.75;5.10;;;23.30;92.90;;;;;;5052246;28;20435;-69
2021/07/28 00:15:42;;;;;;;13.85;5.70;;;23.20;92.70;;;;;;5052432;28;20052;-69
2021/07/28 00:25:26;;;;;;;11.35;5.90;;;23.20;92.70;;;;;;5052345;28;20044;-69
2021/07/28 00:28:30;;;;;;;12.32;6.30;;;23.20;92.90;;;;;;5052192;28;20052;-69
2021/07/28 00:31:38;;;;;;;12.05;5.68;;;23.10;93.90;;;;;;5051288;28;20048;-69
2021/07/28 00:34:42;;;;;;;11.43;5.10;;;23.10;94.20;;;;;;5051731;28;20055;-69
2021/07/28 00:37:46;;;;;;;11.65;5.53;;;23.00;94.00;;;;;;5052067;28;20044;-69
2021/07/28 00:40:50;;;;;;;13.23;5.80;;;22.90;94.10;;;;;;5051706;28;20044;-69
2021/07/28 00:43:54;;;;;;;11.02;5.97;;;22.90;94.40;;;;;;5051903;28;20072;-69
2021/07/28 00:46:58;;;;;;;10.10;5.88;;;23.00;94.60;;;;;;5050812;28;20040;-69
2021/07/28 00:50:04;;;;;;;11.27;5.80;;;22.90;94.50;;;;;;5051480;28;20388;-69
2021/07/28 00:53:17;;;;;;;9.52;5.75;;;22.90;94.50;;;;;;5051723;28;20059;-69
2021/07/28 00:56:21;;;;;;;8.70;5.93;;;22.70;95.40;;;;;;5051559;28;20044;-69
2021/07/28 00:59:28;;;;;;;15.07;7.20;;;22.70;95.60;;;;;;5051472;28;20044;-70
2021/07/28 01:02:33;;;;;;;10.88;5.88;;;22.60;95.90;;;;;;5051482;28;20479;-69
2021/07/28 01:05:38;;;;;;;10.85;5.97;;;22.60;96.00;;;;;;5051322;28;20052;-69
2021/07/28 01:08:42;;;;;;;11.25;6.28;;;22.50;96.00;;;;;;5050572;28;20040;-69
2021/07/28 01:11:46;;;;;;;18.02;6.10;;;22.50;96.40;;;;;;5030902;28;20507;-69
2021/07/28 01:14:51;;;;;;;8.88;6.00;;;22.50;96.60;;;;;;5031091;28;20503;-69
2021/07/28 01:17:55;;;;;;;9.48;5.90;;;22.40;96.80;;;;;;5031176;28;20041;-69
2021/07/28 01:21:00;;;;;;;11.77;6.20;;;22.40;96.90;;;;;;5030453;28;20495;-69
2021/07/28 01:24:06;;;;;;;14.18;6.93;;;22.30;97.10;;;;;;5031173;28;20064;-69
2021/07/28 01:27:13;;;;;;;13.75;7.35;;;22.30;97.10;;;;;;5030686;28;20041;-69
2021/07/28 01:30:17;;;;;;;10.90;6.53;;;22.20;97.20;;;;;;5030436;28;20048;-69
2021/07/28 01:33:21;;;;;;;11.82;5.70;;;22.00;97.50;;;;;;5029820;28;20048;-69
2021/07/28 01:36:25;;;;;;;10.73;6.00;;;22.00;97.90;;;;;;5029998;28;20400;-69
2021/07/28 01:39:29;;;;;;;14.57;6.93;;;21.90;97.80;;;;;;5030657;28;20507;-70
2021/07/28 01:42:43;;;;;;;10.27;6.15;;;21.90;98.80;;;;;;5030449;28;20049;-69
2021/07/28 01:45:47;;;;;;;13.60;6.63;;;21.90;98.80;;;;;;5030001;28;20045;-69
2021/07/28 01:48:51;;;;;;;12.75;6.55;;;21.90;98.90;;;;;;5030493;28;20040;-69
2021/07/28 01:51:56;;;;;;;13.68;6.78;;;21.90;99.10;;;;;;5029840;28;20056;-69
2021/07/28 01:55:05;;;;;;;18.48;6.90;;;21.80;99.40;;;;;;5030529;28;20053;-69
2021/07/28 01:58:13;;;;;;;10.57;6.78;;;21.80;99.90;;;;;;5030517;28;20116;-69
2021/07/28 02:01:17;;;;;;;11.48;6.22;;;21.70;99.90;;;;;;5030051;28;20037;-69
2021/07/28 02:04:21;;;;;;;12.65;6.15;;;21.70;99.90;;;;;;5030634;28;20040;-69
2021/07/28 02:07:25;;;;;;;12.57;6.82;;;21.60;99.90;;;;;;5030319;28;20064;-69
2021/07/28 02:10:34;;;;;;;14.48;6.72;;;21.60;99.90;;;;;;5045277;28;20044;-69
2021/07/28 02:13:37;;;;;;;13.40;7.32;;;21.50;99.90;;;;;;5050261;28;20507;-69
2021/07/28 02:16:41;;;;;;;15.70;7.10;;;21.50;99.90;;;;;;5050145;28;20419;-69
2021/07/28 02:19:45;;;;;;;11.93;7.10;;;21.40;99.90;;;;;;5048995;28;20587;-69
2021/07/28 02:22:50;;;;;;;15.73;7.10;;;21.30;99.90;;;;;;5050324;28;20044;-69
2021/07/28 02:25:54;;;;;;;11.73;7.03;;;21.30;99.90;;;;;;5050209;28;20048;-69
2021/07/28 02:28:58;;;;;;;11.65;6.88;;;21.20;99.90;;;;;;5049918;28;20383;-69
2021/07/28 02:32:04;;;;;;;11.90;6.70;;;21.20;99.90;;;;;;5049428;28;20044;-69
2021/07/28 02:35:08;;;;;;;13.73;7.75;;;21.20;99.90;;;;;;5049948;28;20040;-70
2021/07/28 02:38:12;;;;;;;14.82;7.60;;;21.00;99.90;;;;;;5049774;28;20040;-69
2021/07/28 02:41:16;;;;;;;15.77;7.70;;;20.90;99.90;;;;;;5049244;28;20399;-69
2021/07/28 02:44:20;;;;;;;16.33;7.05;;;20.70;99.90;;;;;;5049512;28;20122;-69
2021/07/28 02:47:24;;;;;;;13.25;8.18;;;20.70;99.90;;;;;;5039984;28;20045;-69
2021/07/28 02:50:32;;;;;;;16.02;8.82;;;20.60;99.90;;;;;;5026871;28;20052;-69
2021/07/28 02:53:36;;;;;;;13.18;7.28;;;20.60;99.90;;;;;;5043203;28;20051;-69
2021/07/28 02:56:40;;;;;;;12.95;7.85;;;20.50;99.90;;;;;;5042134;28;20052;-69
2021/07/28 02:59:44;;;;;;;15.93;8.00;;;20.50;99.90;;;;;;5033772;28;20044;-69
2021/07/28 03:02:48;;;;;;;13.65;7.55;;;20.50;99.90;;;;;;5033373;28;20049;-69
2021/07/28 03:05:52;;;;;;;13.52;7.35;;;20.50;99.90;;;;;;5046020;28;20040;-69
2021/07/28 03:08:56;;;;;;;15.93;8.20;;;20.60;99.90;;;;;;5053690;28;20044;-69
2021/07/28 03:12:00;;;;;;;12.77;7.72;;;20.60;99.90;;;;;;5048897;28;20040;-69
2021/07/28 03:15:05;;;;;;;12.18;7.03;;;20.70;99.90;;;;;;5038712;28;20040;-69
2021/07/28 03:18:09;;;;;;;11.88;7.40;;;20.50;99.90;;;;;;5035829;28;20424;-69
2021/07/28 03:21:13;;;;;;;13.85;7.30;;;20.40;99.90;;;;;;5026958;28;20048;-69
2021/07/28 03:24:19;;;;;;;16.98;7.75;;;20.50;99.90;;;;;;5036444;28;20381;-69
2021/07/28 03:27:23;;;;;;;12.65;8.50;;;20.50;99.90;;;;;;5049484;28;20060;-69
2021/07/28 03:30:27;;;;;;;19.40;8.90;;;20.60;99.90;;;;;;5044180;28;20048;-69
2021/07/28 03:33:31;;;;;;;14.30;7.70;;;20.70;99.90;;;;;;5018019;28;20041;-69
2021/07/28 03:36:36;;;;;;;17.00;8.10;;;20.70;99.90;;;;;;5044025;28;20044;-69
2021/07/28 03:39:41;;;;;;;28.73;9.73;;;20.70;99.90;;;;;;5047477;28;20058;-70
2021/07/28 03:42:47;;;;;;;16.02;8.38;;;20.70;99.90;;;;;;5032970;28;20056;-69
2021/07/28 03:45:53;;;;;;;13.88;8.13;;;20.70;99.90;;;;;;5033197;28;20072;-69
2021/07/28 03:48:58;;;;;;;15.27;7.25;;;20.70;99.90;;;;;;5045206;28;20040;-69
2021/07/28 03:52:02;;;;;;;19.60;8.40;;;20.70;99.90;;;;;;5051995;28;20048;-69
2021/07/28 03:55:10;;;;;;;14.65;7.38;;;20.70;99.90;;;;;;5053020;28;20044;-69
2021/07/28 03:58:14;;;;;;;14.50;8.27;;;20.70;99.90;;;;;;5052096;28;20047;-69
2021/07/28 04:01:19;;;;;;;17.35;8.55;;;20.60;99.90;;;;;;5052265;28;20044;-69
2021/07/28 04:04:23;;;;;;;16.85;8.35;;;20.70;99.90;;;;;;5051894;28;20052;-69
2021/07/28 04:07:27;;;;;;;13.65;8.25;;;20.60;99.90;;;;;;5012829;28;20045;-69
2021/07/28 04:10:31;;;;;;;14.57;8.35;;;20.60;99.90;;;;;;5012261;28;20044;-69
2021/07/28 04:13:35;;;;;;;15.60;7.80;;;20.60;99.90;;;;;;5012908;28;20048;-69
2021/07/28 04:16:40;;;;;;;20.60;8.65;;;20.60;99.90;;;;;;5012720;28;20400;-69
2021/07/28 04:19:48;;;;;;;15.15;8.35;;;20.60;99.90;;;;;;5012477;28;20060;-69
2021/07/28 04:22:52;;;;;;;17.52;7.68;;;20.60;99.90;;;;;;5012310;28;20053;-69
2021/07/28 04:25:58;;;;;;;16.10;7.88;;;20.60;99.90;;;;;;5012471;28;20048;-69
2021/07/28 04:29:02;;;;;;;10.98;7.88;;;20.70;99.90;;;;;;5012385;28;20053;-69
2021/07/28 04:32:07;;;;;;;15.98;7.72;;;20.70;99.90;;;;;;5010274;28;20045;-69
2021/07/28 04:35:12;;;;;;;17.58;8.05;;;20.80;99.90;;;;;;5012010;28;20527;-69
2021/07/28 04:38:16;;;;;;;16.10;7.43;;;21.00;99.90;;;;;;5012139;28;20408;-69
2021/07/28 04:41:20;;;;;;;12.43;7.50;;;21.10;99.90;;;;;;5026777;28;20047;-69
2021/07/28 04:44:25;;;;;;;16.67;8.52;;;21.30;99.90;;;;;;5023888;28;20045;-70
2021/07/28 04:47:30;;;;;;;19.27;8.35;;;21.30;99.90;;;;;;5031377;28;20048;-69
2021/07/28 04:50:35;;;;;;;16.58;8.15;;;21.30;99.90;;;;;;5030938;28;20047;-69
2021/07/28 04:53:41;;;;;;;15.32;7.53;;;21.40;99.90;;;;;;5031246;28;20064;-69
2021/07/28 04:56:46;;;;;;;12.77;7.55;;;22.10;99.90;;;;;;5031233;28;20396;-70
2021/07/28 04:59:50;;;;;;;12.07;7.18;;;23.50;99.90;;;;;;5031198;28;20400;-70
2021/07/28 05:02:54;;;;;;;14.77;6.75;;;24.50;99.90;;;;;;5030344;28;20223;-69
2021/07/28 05:05:59;;;;;;;13.88;7.85;;;25.70;99.90;;;;;;5031159;28;20053;-69
2021/07/28 05:09:03;;;;;;;12.40;5.97;;;26.70;99.90;;;;;;5031128;28;20040;-70
2021/07/28 05:12:08;;;;;;;12.93;6.88;;;27.30;99.70;;;;;;5024868;28;20052;-69
2021/07/28 05:15:12;;;;;;;13.68;7.53;;;26.10;99.80;;;;;;5024828;28;20395;-70
2021/07/28 05:18:16;;;;;;;15.65;7.40;;;25.70;99.90;;;;;;5028749;28;20656;-69
2021/07/28 05:21:20;;;;;;;14.63;6.60;;;25.70;99.90;;;;;;5028076;28;20775;-70
2021/07/28 05:24:24;;;;;;;13.80;6.38;;;26.10;99.90;;;;;;5028976;28;20045;-70
2021/07/28 05:27:28;;;;;;;16.33;6.15;;;26.50;99.60;;;;;;5030382;28;20531;-69
2021/07/28 05:30:33;;;;;;;12.40;6.85;;;27.20;98.80;;;;;;5028068;28;20048;-69
2021/07/28 05:33:37;;;;;;;11.90;5.90;;;26.90;98.70;;;;;;5025121;28;20044;-69
2021/07/28 05:36:42;;;;;;;13.05;6.68;;;26.80;98.60;;;;;;5005155;28;20515;-69
2021/07/28 05:39:46;;;;;;;11.55;6.57;;;26.50;99.30;;;;;;5025248;28;20048;-69
2021/07/28 05:42:50;;;;;;;13.25;6.30;;;27.10;98.60;;;;;;5026622;28;20040;-69
2021/07/28 05:45:55;;;;;;;11.65;5.50;;;28.20;97.30;;;;;;5021812;28;20052;-70
2021/07/28 05:48:59;;;;;;;11.68;5.50;;;28.90;96.40;;;;;;5028477;28;20048;-70
2021/07/28 05:52:04;;;;;;;10.43;5.20;;;29.60;95.40;;;;;;5027104;28;20048;-70
2021/07/28 05:55:09;;;;;;;14.48;5.55;;;30.00;94.60;;;;;;5028444;28;20052;-70
2021/07/28 05:58:13;;;;;;;9.02;5.28;;;30.40;94.10;;;;;;5026050;28;20048;-70
2021/07/28 06:01:17;;;;;;;14.93;6.70;;;30.90;93.20;;;;;;5028856;28;20040;-69
2021/07/28 06:04:21;;;;;;;17.08;5.00;;;30.70;93.20;;;;;;5028030;28;20045;-70
2021/07/28 06:07:25;;;;;;;12.98;5.57;;;31.10;92.60;;;;;;5026785;28;20056;-69
2021/07/28 06:10:29;;;;;;;12.20;5.95;;;30.40;92.90;;;;;;5012618;28;20041;-70
2021/07/28 06:13:33;;;;;;;13.05;5.57;;;31.60;92.00;;;;;;5029070;28;20064;-70
2021/07/28 06:16:39;;;;;;;11.73;5.35;;;30.90;91.90;;;;;;5025279;28;20048;-69
2021/07/28 06:19:44;;;;;;;13.07;5.53;;;30.20;92.30;;;;;;5016140;28;20041;-70
2021/07/28 06:22:49;;;;;;;9.75;5.15;;;30.60;92.50;;;;;;5027928;28;20052;-69
2021/07/28 06:25:54;;;;;;;11.05;4.43;;;31.10;91.20;;;;;;5029072;28;20052;-69
2021/07/28 06:28:59;;;;;;;8.75;5.50;;;31.40;90.90;;;;;;5024637;28;20060;-69
2021/07/28 06:32:04;;;;;;;10.65;4.90;;;30.80;90.70;;;;;;5026366;28;20419;-69
2021/07/28 06:35:09;;;;;;;10.02;4.78;;;31.00;91.00;;;;;;5028755;28;20052;-69
2021/07/28 06:38:15;;;;;;;13.65;5.00;;;31.30;90.50;;;;;;5029125;28;20045;-69
2021/07/28 06:41:19;;;;;;;7.80;4.82;;;31.70;90.00;;;;;;5029198;28;20049;-69
2021/07/28 06:44:23;;;;;;;9.45;5.10;;;31.90;89.70;;;;;;5010839;28;20044;-69
2021/07/28 06:47:27;;;;;;;8.23;4.70;;;31.20;89.70;;;;;;5021310;28;20044;-69
2021/07/28 06:50:32;;;;;;;11.02;4.93;;;32.10;89.40;;;;;;5026518;28;20049;-70
2021/07/28 06:53:37;;;;;;;9.60;5.28;;;32.80;87.40;;;;;;5024385;28;20654;-70
2021/07/28 06:56:41;;;;;;;10.45;5.93;;;31.20;88.60;;;;;;5025244;28;20049;-70
2021/07/28 06:59:46;;;;;;;16.08;5.00;;;29.70;90.20;;;;;;5027807;28;20064;-70
2021/07/28 07:02:57;;;;;;;7.45;4.88;;;31.10;90.00;;;;;;5029186;28;20052;-70
2021/07/28 07:06:01;;;;;;;13.77;4.57;;;32.10;86.20;;;;;;5022630;28;20045;-71
2021/07/28 07:09:05;;;;;;;7.20;4.18;;;32.40;86.90;;;;;;5029458;28;20531;-70
2021/07/28 07:12:09;;;;;;;9.07;4.50;;;33.40;84.10;;;;;;5028317;28;20051;-70
2021/07/28 07:15:13;;;;;;;13.32;4.93;;;34.10;84.00;;;;;;5022865;28;20048;-69
2021/07/28 07:18:17;;;;;;;11.23;4.65;;;32.80;83.70;;;;;;5021591;28;20049;-70
2021/07/28 07:21:22;;;;;;;11.50;4.72;;;32.50;85.80;;;;;;5025121;28;20044;-69
2021/07/28 07:24:27;;;;;;;9.75;4.15;;;32.90;85.00;;;;;;5020463;28;20395;-70
2021/07/28 07:27:31;;;;;;;9.05;4.60;;;33.20;84.30;;;;;;5027531;28;20036;-70
2021/07/28 07:30:36;;;;;;;11.48;4.70;;;34.90;80.80;;;;;;5029673;28;20052;-70
2021/07/28 07:33:40;;;;;;;11.00;5.00;;;35.00;80.70;;;;;;5029214;28;20045;-70
2021/07/28 07:36:45;;;;;;;10.93;5.13;;;34.40;79.00;;;;;;5023369;28;20571;-70
2021/07/28 07:39:49;;;;;;;6.97;4.40;;;34.80;80.10;;;;;;5025310;28;20048;-70
2021/07/28 07:42:53;;;;;;;7.32;4.45;;;33.10;80.70;;;;;;5025024;28;20044;-69
2021/07/28 07:45:59;;;;;;;8.90;4.00;;;34.20;80.30;;;;;;5026983;28;20049;-69
2021/07/28 07:48:35;;;;;;;9.43;4.78;;;34.70;79.10;;;;;;5084094;28;20242;-62
2021/07/28 07:51:39;;;;;;;11.38;5.32;;;34.00;79.60;;;;;;5075778;28;20045;-61
2021/07/28 07:54:43;;;;;;;11.90;4.65;;;32.90;81.30;;;;;;5083205;28;20104;-61
2021/07/28 07:57:47;;;;;;;10.13;4.72;;;31.70;84.40;;;;;;5083374;28;20413;-62
2021/07/28 08:00:51;;;;;;;6.72;4.32;;;32.10;85.50;;;;;;5075552;28;20509;-61
2021/07/28 08:03:56;;;;;;;9.90;5.00;;;34.10;81.60;;;;;;5072538;28;20041;-61
2021/07/28 08:07:01;;;;;;;11.20;4.65;;;33.00;82.10;;;;;;5068228;28;20036;-61
2021/07/28 08:10:07;;;;;;;7.85;4.43;;;32.90;82.30;;;;;;5066102;28;20048;-62
2021/07/28 08:13:11;;;;;;;6.57;4.00;;;31.80;82.90;;;;;;5072976;28;20036;-61
2021/07/28 08:16:18;;;;;;;8.27;4.25;;;33.40;80.00;;;;;;5086459;28;20056;-61
2021/07/28 08:19:23;;;;;;;12.13;4.85;;;33.40;78.90;;;;;;5065771;28;20032;-62
2021/07/28 08:22:28;;;;;;;17.90;4.80;;;34.50;76.80;;;;;;5072897;28;20051;-61
2021/07/28 08:25:32;;;;;;;8.02;4.30;;;35.00;76.50;;;;;;5066110;28;20047;-60
2021/07/28 08:28:35;;;;;;;9.00;4.15;;;34.70;75.70;;;;;;5066653;28;20059;-63
2021/07/28 08:31:40;;;;;;;7.88;3.92;;;34.70;76.20;;;;;;5066464;28;20036;-62
2021/07/28 08:35:04;;;;;;;6.82;3.88;;;34.30;76.10;;;;;;5070787;28;20057;-60
2021/07/28 08:38:12;;;;;;;14.05;4.32;;;35.50;74.30;;;;;;5065640;28;20040;-62
2021/07/28 08:41:22;;;;;;;9.52;4.30;;;35.40;73.60;;;;;;5074476;28;20054;-64
2021/07/28 08:44:27;;;;;;;12.27;5.13;;;33.80;74.40;;;;;;5065708;28;20032;-64
2021/07/28 08:47:31;;;;;;;8.90;5.00;;;32.30;76.90;;;;;;5079791;28;20403;-63
2021/07/28 08:50:35;;;;;;;12.48;4.85;;;32.00;77.20;;;;;;5076778;28;20040;-63
2021/07/28 08:53:39;;;;;;;10.45;4.93;;;31.00;79.50;;;;;;5078815;28;20044;-64
2021/07/28 08:56:43;;;;;;;8.68;4.80;;;31.50;79.40;;;;;;5081073;28;20055;-62
2021/07/28 08:59:47;;;;;;;6.18;4.72;;;32.90;76.40;;;;;;5065157;28;20037;-62
2021/07/28 09:02:54;;;;;;;6.25;4.55;;;33.50;75.50;;;;;;5060834;28;20040;-62
2021/07/28 09:06:36;;;;;;;11.77;4.43;;;32.40;75.80;;;;;;5065232;27;2060617;-63
2021/07/28 09:09:57;;;;;;;10.70;4.40;;;32.80;75.20;;;;;;5102603;28;20282;-62
2021/07/28 09:13:02;;;;;;;8.68;4.05;;;35.60;72.80;;;;;;5128499;28;20040;-62
2021/07/28 09:16:10;;;;;;;7.70;4.13;;;36.60;71.50;;;;;;5108055;28;20721;-62
2021/07/28 09:19:34;;;;;;;9.32;4.55;;;37.10;70.90;;;;;;5110903;28;20028;-62
2021/07/28 09:22:40;;;;;;;13.88;5.38;;;37.60;70.00;;;;;;5107459;28;20024;-60
2021/07/28 09:25:51;;;;;;;15.15;4.63;;;33.50;73.70;;;;;;5112446;28;20046;-62
2021/07/28 09:29:32;;;;;;;11.10;4.82;;;32.70;76.30;;;;;;5117729;28;20043;-62
2021/07/28 09:32:55;;;;;;;;;;;33.30;76.10;;;;;;5113516;28;20039;-62
2021/07/28 09:36:14;;;;;;;8.50;4.32;;;33.40;76.00;;;;;;5117337;28;20269;-62
2021/07/28 09:39:26;;;;;;;8.98;4.55;;;34.70;74.80;;;;;;5117628;28;20031;-62
2021/07/28 09:42:30;;;;;;;8.90;4.70;;;36.20;73.20;;;;;;5125474;28;20402;-64
2021/07/28 09:45:35;;;;;;;12.65;4.40;;;36.10;71.50;;;;;;5116781;28;20505;-63
2021/07/28 09:48:39;;;;;;;6.78;4.38;;;37.20;71.20;;;;;;5117096;28;20500;-63
2021/07/28 09:51:45;;;;;;;8.20;4.07;;;36.30;71.70;;;;;;5099881;28;20032;-62
2021/07/28 09:54:52;;;;;;;9.65;4.15;;;35.00;71.90;;;;;;5127065;28;20039;-64
2021/07/28 09:57:58;;;;;;;12.10;4.50;;;34.40;74.20;;;;;;5115314;28;20485;-61
2021/07/28 10:01:02;;;;;;;10.20;4.78;;;36.10;72.00;;;;;;5109584;28;20047;-62
2021/07/28 10:04:07;;;;;;;7.30;4.07;;;37.00;71.40;;;;;;5115062;28;20050;-61
2021/07/28 10:07:15;;;;;;;10.00;4.50;;;35.80;72.00;;;;;;5093667;28;20035;-63
2021/07/28 10:10:20;;;;;;;8.82;4.20;;;37.50;69.10;;;;;;5106188;28;20034;-64
2021/07/28 10:13:24;;;;;;;9.80;4.80;;;37.60;69.70;;;;;;5086987;28;20028;-62
2021/07/28 10:16:31;;;;;;;9.98;4.65;;;35.80;69.80;;;;;;5108608;28;20031;-64
2021/07/28 10:19:35;;;;;;;12.00;5.05;;;34.60;72.10;;;;;;5092015;28;20040;-60
2021/07/28 10:22:42;;;;;;;9.40;4.72;;;34.90;72.30;;;;;;5096078;28;20424;-62
2021/07/28 10:25:46;;;;;;;6.85;4.40;;;37.00;70.90;;;;;;5097134;28;20044;-62
2021/07/28 10:28:50;;;;;;;9.85;4.78;;;38.90;68.30;;;;;;5101558;28;20476;-64
2021/07/28 10:31:55;;;;;;;9.95;4.72;;;35.10;70.60;;;;;;5092166;28;20024;-65
2021/07/28 10:35:22;;;;;;;7.07;4.03;;;32.90;74.70;;;;;;5101392;28;20509;-62
2021/07/28 10:38:26;;;;;;;6.10;4.25;;;36.60;71.50;;;;;;5096244;28;20044;-62
2021/07/28 10:41:36;;;;;;;7.97;4.18;;;39.30;68.30;;;;;;5092925;28;20035;-60
2021/07/28 10:45:02;;;;;;;11.68;3.90;;;41.40;65.10;;;;;;5093492;28;20397;-63
2021/07/28 10:48:07;;;;;;;11.55;4.70;;;42.00;64.30;;;;;;5111153;28;20038;-61
2021/07/28 10:51:54;;;;;;;8.55;4.15;;;40.50;64.20;;;;;;5100758;28;20058;-63
2021/07/28 10:54:58;;;;;;;6.68;3.95;;;41.40;64.70;;;;;;5100937;28;20036;-62
2021/07/28 10:58:10;;;;;;;12.00;4.43;;;41.40;64.30;;;;;;5102416;28;20043;-62
2021/07/28 11:01:15;;;;;;;6.85;3.97;;;43.20;62.50;;;;;;5100042;28;20042;-61
2021/07/28 11:04:25;;;;;;;9.48;4.22;;;43.90;61.80;;;;;;5101182;28;20040;-64
2021/07/28 11:08:07;;;;;;;6.32;3.78;;;44.70;60.80;;;;;;5096907;28;20048;-63
2021/07/28 11:11:20;;;;;;;9.27;4.15;;;46.30;59.00;;;;;;5096868;28;20031;-63
2021/07/28 11:14:26;;;;;;;10.20;4.07;;;44.90;59.40;;;;;;5098001;28;20024;-63
2021/07/28 11:17:30;;;;;;;7.80;3.92;;;45.00;59.20;;;;;;5099419;28;20043;-63
2021/07/28 11:20:39;;;;;;;6.18;4.00;;;42.00;60.30;;;;;;5097246;28;20032;-61
2021/07/28 11:24:04;;;;;;;13.88;4.80;;;41.50;62.70;;;;;;5100110;28;20032;-63
2021/07/28 11:27:11;;;;;;;11.65;4.18;;;37.10;67.30;;;;;;5101529;28;20042;-62
2021/07/28 11:30:16;;;;;;;10.43;4.47;;;37.30;67.80;;;;;;5085660;28;20398;-63
2021/07/28 11:33:22;;;;;;;8.63;4.63;;;37.30;67.60;;;;;;5101058;28;20043;-61
2021/07/28 11:36:26;;;;;;;15.35;5.15;;;37.70;66.90;;;;;;5091227;28;20036;-61
2021/07/28 11:39:33;;;;;;;7.95;4.40;;;40.20;66.70;;;;;;5101560;28;20055;-63
2021/07/28 11:42:37;;;;;;;7.03;4.03;;;40.40;65.50;;;;;;5106211;28;20039;-62
2021/07/28 11:45:41;;;;;;;12.75;5.35;;;39.00;67.50;;;;;;5102207;28;20044;-63
2021/07/28 11:48:50;;;;;;;10.60;5.22;;;37.10;69.20;;;;;;5103459;28;20048;-61
2021/07/28 11:51:59;;;;;;;13.02;5.55;;;35.10;71.30;;;;;;5101308;28;20134;-60
2021/07/28 11:55:21;;;;;;;12.70;6.18;;;34.80;72.90;;;;;;5102747;28;20046;-61
2021/07/28 11:58:25;;;;;;;9.18;5.72;;;33.00;75.60;;;;;;5089459;28;20050;-62
2021/07/28 12:01:34;;;;;;;17.20;5.90;;;33.00;75.60;;;;;;5102265;28;20043;-61
2021/07/28 12:04:39;;;;;;;9.60;5.25;;;34.00;75.10;;;;;;5102455;28;20046;-61
2021/07/28 12:07:54;;;;;;;14.75;5.45;;;34.90;73.90;;;;;;5101539;28;20409;-61
2021/07/28 12:11:16;;;;;;;13.60;5.10;;;34.40;73.60;;;;;;5099944;28;20042;-63
2021/07/28 12:14:38;;;;;;;10.98;4.95;;;35.10;74.10;;;;;;5101621;28;20408;-62
2021/07/28 12:17:50;;;;;;;12.02;4.65;;;35.80;73.00;;;;;;5086044;28;20042;-62
2021/07/28 12:20:57;;;;;;;10.57;5.70;;;36.50;71.60;;;;;;5104316;28;20515;-62
2021/07/28 12:24:03;;;;;;;9.02;4.97;;;35.30;72.40;;;;;;5102297;28;20039;-60
2021/07/28 12:27:30;;;;;;;10.52;5.40;;;34.60;73.00;;;;;;5105169;28;20042;-61
2021/07/28 12:30:38;;;;;;;11.70;5.60;;;35.20;72.70;;;;;;5101953;28;20519;-61
2021/07/28 12:33:43;;;;;;;11.48;5.18;;;35.00;72.70;;;;;;5103173;28;20042;-61
2021/07/28 12:36:47;;;;;;;19.20;5.20;;;35.60;72.10;;;;;;5101580;28;20043;-62
2021/07/28 12:39:55;;;;;;;11.02;5.25;;;35.50;72.80;;;;;;5101163;28;20041;-63
2021/07/28 12:42:59;;;;;;;14.27;5.13;;;35.90;70.80;;;;;;5101423;28;20043;-63
2021/07/28 12:46:09;;;;;;;12.68;5.38;;;35.60;70.80;;;;;;5101699;28;20408;-60
2021/07/28 12:49:13;;;;;;;10.35;5.10;;;35.00;71.40;;;;;;5100311;28;20047;-61
2021/07/28 12:52:17;;;;;;;10.15;5.20;;;34.40;71.30;;;;;;5100650;28;20050;-62
2021/07/28 12:55:22;;;;;;;12.20;5.30;;;34.80;71.00;;;;;;5100101;28;20043;-61
2021/07/28 12:58:26;;;;;;;8.95;5.40;;;35.10;71.90;;;;;;5097160;28;20043;-63
2021/07/28 13:01:31;;;;;;;11.02;5.55;;;34.40;71.90;;;;;;5087414;28;20417;-62
2021/07/28 13:04:35;;;;;;;13.98;5.85;;;35.00;71.70;;;;;;5099721;28;20051;-60
2021/07/28 13:10:47;;;;;;;10.65;6.00;;;34.60;71.80;;;;;;5096059;28;20414;-63
2021/07/28 13:13:52;;;;;;;13.43;6.13;;;35.00;71.00;;;;;;5101607;28;20114;-61
2021/07/28 13:16:56;;;;;;;11.80;5.43;;;34.10;72.00;;;;;;5097106;28;20047;-63
2021/07/28 13:20:00;;;;;;;11.30;5.82;;;34.60;72.90;;;;;;5098107;28;20051;-62
2021/07/28 13:23:05;;;;;;;10.77;5.35;;;33.40;72.40;;;;;;5098802;28;20044;-62
2021/07/28 13:26:08;;;;;;;9.68;4.95;;;34.00;72.90;;;;;;5099498;28;20062;-61
2021/07/28 13:29:13;;;;;;;6.07;4.63;;;33.90;69.40;;;;;;5100775;28;20032;-61
2021/07/28 13:32:17;;;;;;;12.82;5.28;;;33.80;70.60;;;;;;5097680;28;20043;-62
2021/07/28 13:35:21;;;;;;;10.70;5.32;;;33.60;70.40;;;;;;5087096;28;20634;-63
2021/07/28 13:38:27;;;;;;;9.73;5.18;;;33.80;68.90;;;;;;5099317;28;20512;-62
2021/07/28 13:41:31;;;;;;;12.93;5.00;;;34.20;70.90;;;;;;5097944;28;20035;-62
2021/07/28 13:44:35;;;;;;;12.55;5.03;;;34.70;70.90;;;;;;5085269;28;20058;-62
2021/07/28 13:47:46;;;;;;;10.98;4.50;;;34.80;69.20;;;;;;5099768;28;20522;-61
2021/07/28 13:50:51;;;;;;;13.55;5.28;;;34.90;69.40;;;;;;5097464;28;20043;-62
2021/07/28 13:53:56;;;;;;;11.38;4.63;;;34.50;68.90;;;;;;5100309;28;20629;-61
2021/07/28 13:57:15;;;;;;;9.95;4.75;;;34.10;70.60;;;;;;5103931;28;20126;-63
2021/07/28 14:00:19;;;;;;;11.73;4.80;;;34.60;70.80;;;;;;5102856;28;20037;-61
2021/07/28 14:03:23;;;;;;;14.00;4.97;;;34.20;69.00;;;;;;5088354;28;20048;-62
2021/07/28 14:06:27;;;;;;;11.35;4.28;;;35.00;69.30;;;;;;5100804;28;20062;-63
2021/07/28 14:09:31;;;;;;;12.52;4.88;;;35.90;68.40;;;;;;5104031;28;20039;-63
2021/07/28 14:12:38;;;;;;;11.77;5.35;;;35.90;69.00;;;;;;5098605;28;20043;-62
2021/07/28 14:15:43;;;;;;;9.43;4.80;;;34.40;70.10;;;;;;5101949;28;20051;-62
2021/07/28 14:18:47;;;;;;;15.88;5.20;;;34.50;71.80;;;;;;5103089;28;20048;-62
2021/07/28 14:21:51;;;;;;;10.20;5.30;;;34.00;71.40;;;;;;5098388;28;20043;-61
2021/07/28 14:24:56;;;;;;;13.60;5.55;;;34.10;70.50;;;;;;5099674;28;20043;-63
2021/07/28 14:28:04;;;;;;;12.38;4.93;;;34.70;70.40;;;;;;5099733;28;20043;-61
2021/07/28 14:31:08;;;;;;;16.23;5.35;;;34.30;71.20;;;;;;5103936;28;20039;-62
2021/07/28 14:34:12;;;;;;;11.57;4.80;;;34.40;70.80;;;;;;5100622;28;20043;-63
2021/07/28 14:37:16;;;;;;;9.70;5.10;;;34.00;71.80;;;;;;5101422;28;20042;-62
2021/07/28 14:40:22;;;;;;;13.38;4.85;;;34.10;71.70;;;;;;5102594;28;20047;-62
2021/07/28 14:43:26;;;;;;;11.48;4.70;;;33.50;71.00;;;;;;5102644;28;20042;-61
2021/07/28 14:46:31;;;;;;;14.38;5.50;;;34.00;70.60;;;;;;5078500;28;20047;-61
2021/07/28 14:49:36;;;;;;;16.70;5.05;;;34.00;70.60;;;;;;5102085;28;20043;-62
2021/07/28 14:52:41;;;;;;;8.70;4.30;;;34.50;70.00;;;;;;5100642;28;20069;-61
2021/07/28 14:55:45;;;;;;;10.55;4.75;;;34.60;70.10;;;;;;5100704;28;20031;-62
2021/07/28 14:58:49;;;;;;;14.30;5.40;;;33.50;69.70;;;;;;5101398;28;20038;-62
2021/07/28 15:01:53;;;;;;;12.05;5.03;;;33.50;70.60;;;;;;5098028;28;20042;-62
2021/07/28 15:04:59;;;;;;;7.93;4.55;;;33.10;70.30;;;;;;5096423;28;20042;-62
2021/07/28 15:08:03;;;;;;;8.75;4.80;;;33.50;70.10;;;;;;5098185;28;20050;-62
2021/07/28 15:11:08;;;;;;;9.38;5.10;;;33.40;69.80;;;;;;5098505;28;20047;-62
2021/07/28 15:14:13;;;;;;;11.38;4.97;;;33.90;70.10;;;;;;5100020;28;20039;-63
2021/07/28 15:17:17;;;;;;;8.25;4.90;;;33.40;69.00;;;;;;5100282;28;20043;-61
2021/07/28 15:20:22;;;;;;;11.23;4.65;;;33.80;69.10;;;;;;5103509;28;20421;-61
2021/07/28 15:23:27;;;;;;;11.02;4.53;;;34.00;69.10;;;;;;5090483;28;20051;-64
2021/07/28 15:26:31;;;;;;;12.80;5.20;;;34.20;68.90;;;;;;5090989;28;20414;-62
2021/07/28 15:29:35;;;;;;;11.23;4.85;;;33.40;70.40;;;;;;5091575;28;20043;-61
2021/07/28 15:32:40;;;;;;;10.20;4.70;;;33.00;70.80;;;;;;5091164;28;20707;-64
2021/07/28 15:35:45;;;;;;;10.98;4.50;;;32.90;71.90;;;;;;5091180;28;20063;-63
2021/07/28 15:39:04;;;;;;;10.40;4.72;;;32.90;69.80;;;;;;5091494;28;20039;-61
2021/07/28 15:42:08;;;;;;;13.57;4.30;;;32.80;70.10;;;;;;5090544;28;20039;-62
2021/07/28 15:45:17;;;;;;;11.90;4.80;;;33.10;70.80;;;;;;5078354;28;20040;-63
2021/07/28 15:48:22;;;;;;;14.73;4.22;;;33.10;70.20;;;;;;5091001;28;20125;-62
2021/07/28 15:51:27;;;;;;;12.30;4.63;;;33.00;68.90;;;;;;5090909;28;20398;-64
2021/07/28 15:54:31;;;;;;;12.02;5.07;;;32.60;70.80;;;;;;5090881;28;20035;-61
2021/07/28 15:57:38;;;;;;;9.82;5.05;;;32.60;71.20;;;;;;5090705;28;20043;-63
2021/07/28 16:00:43;;;;;;;11.05;4.90;;;32.40;72.20;;;;;;5090847;28;20047;-61
2021/07/28 16:03:48;;;;;;;10.77;4.88;;;32.20;73.00;;;;;;5090779;28;20039;-63
2021/07/28 16:06:55;;;;;;;14.07;5.03;;;32.30;73.40;;;;;;5090737;28;20521;-62
2021/07/28 16:10:01;;;;;;;12.27;4.60;;;32.20;71.80;;;;;;5090921;28;20043;-63